Terminal Aerodrome Forecast
Issued by NWS

Home | Current Version | Previous Version | Text Only | Print | Product List | Glossary On
Versions: 1 2 3 4 5 6 7 8 9 10 11 12 13 14 15 16 17 18 19 20 21 22 23 24 25
000
FTUS41 KBTV 261218 AAA
TAFPBG
TAF AMD
KPBG 261218Z 2612/2712 27007G17KT P6SM VCSH OVC045
      TEMPO 2612/2614 2SM -SN BKN035
     FM261600 30012G22KT P6SM BKN045
     FM262300 28007KT P6SM SCT045
     FM270600 22004KT P6SM SCT200=

USA.gov is the U.S. government's official web portal to all federal, state and local government web resources and services.